Etusivu
METAR-TAF:

METAR-TAF

Lentoasemat :

Vereeniging, Etelä-Afrikka

Leveyspiiri: 26-34-29S, Pituuspiiri: 027-57-45E, korkeus merenpinnasta: 1483 m

Tämänhetkinen sää

Tämä raportti tehtiin 26 minuuttia sitten, kello 21.00 UTC
Tuuli 4 kn idästä/koillisesta
Lämpötila 15°C
Kosteus 94%
Ilmanpaine 1016 hPa

METAR: FAVV 072100Z AUTO 06004KT //// // ////// 15/14 Q1016

Aika: 23:26 (21:26 UTC)


TAF: puuttuu

Säähavainnot ja -ennusteet yli 4000 lentoasemalta (METAR- ja TAF-raportit).

Käytössä olevat sääasemat on merkitty karttaan keltaisilla ja punaisilla pisteillä.

Aseta hiiri pisteen päälle nähdäksesi sääaseman nimen.

Klikkaa sitten nähdäksesi säähavainnot ja -ennusteet.

Kartan vaihtaminen: klikkaa mustalla rastilla varustettuja vihreitä pisteitä, niin voit zoomata sisään; viivalla varustettua vihreää pistettä, niin voit zoomata ulos tai vihreitä nuolia, niin pääset viereisille kartoille.


METAR-TAF: